Time;durP1;ratioP1;P1;durP2;ratioP2;P2;SDS_P1;SDS_P2;PMS_P1;PMS_P2;Temp;Humidity;BMP_temperature;BMP_pressure;BME280_temperature;BME280_humidity;BME280_pressure;Samples;Min_cycle;Max_cycle;Signal;HPM_P1;HPM_P2
2022/01/22 00:00:56;;;;;;;5.80;2.75;;;6.50;72.50;;;;;;2390072;54;20952;-68
2022/01/22 00:03:23;;;;;;;5.87;2.35;;;6.50;71.80;;;;;;2389104;54;20935;-69
2022/01/22 00:05:49;;;;;;;5.93;2.33;;;6.50;71.80;;;;;;2392320;53;20924;-69
2022/01/22 00:08:16;;;;;;;4.75;1.92;;;6.50;71.80;;;;;;2389572;54;20944;-66
2022/01/22 00:10:44;;;;;;;4.75;2.03;;;6.50;71.70;;;;;;2594534;52;20942;-66
2022/01/22 00:17:11;;;;;;;3.85;1.85;;;6.50;71.70;;;;;;2390867;52;20935;-69
2022/01/22 00:20:02;;;;;;;6.37;2.47;;;6.50;71.70;;;;;;2611578;52;20991;-68
2022/01/22 00:22:34;;;;;;;5.62;2.40;;;6.50;71.40;;;;;;2470504;52;20951;-66
2022/01/22 00:25:02;;;;;;;6.93;2.30;;;6.50;71.70;;;;;;2389957;54;20970;-68
2022/01/22 00:27:28;;;;;;;5.28;1.85;;;6.50;71.80;;;;;;2389758;54;21159;-67
2022/01/22 00:29:54;;;;;;;4.70;2.05;;;6.50;71.90;;;;;;2389890;54;20908;-68
2022/01/22 00:32:21;;;;;;;4.20;2.12;;;6.50;71.90;;;;;;2645980;52;20919;-67
2022/01/22 00:34:47;;;;;;;6.32;2.40;;;6.50;72.00;;;;;;2389950;54;20967;-69
2022/01/22 00:37:13;;;;;;;4.95;1.87;;;6.50;72.00;;;;;;2362947;53;21083;-65
2022/01/22 00:39:40;;;;;;;6.47;2.08;;;6.50;72.00;;;;;;2450863;52;21184;-66
2022/01/22 00:42:11;;;;;;;3.47;1.70;;;6.50;72.00;;;;;;2365248;53;20941;-68
2022/01/22 00:44:37;;;;;;;4.80;2.17;;;6.50;71.90;;;;;;2387934;53;20948;-66
2022/01/22 00:47:04;;;;;;;5.05;2.30;;;6.50;71.90;;;;;;2389989;54;20958;-66
2022/01/22 00:49:31;;;;;;;4.10;2.10;;;6.50;72.00;;;;;;2389587;54;21441;-66
2022/01/22 00:51:57;;;;;;;5.87;2.42;;;6.50;72.00;;;;;;2385614;54;20907;-67
2022/01/22 00:54:23;;;;;;;4.78;2.25;;;6.50;72.00;;;;;;2389030;53;20991;-66
2022/01/22 00:56:51;;;;;;;6.35;2.65;;;6.50;71.90;;;;;;2390185;54;20904;-70
2022/01/22 00:59:19;;;;;;;6.22;2.37;;;6.50;71.70;;;;;;2389800;54;21686;-68
2022/01/22 01:01:45;;;;;;;6.62;2.42;;;6.50;71.60;;;;;;2385569;52;22430;-68
2022/01/22 01:04:12;;;;;;;6.00;2.58;;;6.50;71.60;;;;;;2372795;53;21734;-68
2022/01/22 01:06:38;;;;;;;6.25;2.20;;;6.40;71.50;;;;;;2389337;53;20935;-68
2022/01/22 01:09:07;;;;;;;6.70;2.45;;;6.40;71.40;;;;;;2375117;53;20984;-67
2022/01/22 01:11:37;;;;;;;6.05;2.47;;;6.40;71.40;;;;;;2378019;53;20939;-67
2022/01/22 01:14:06;;;;;;;5.05;2.47;;;6.40;71.40;;;;;;2390122;54;20974;-68
2022/01/22 01:16:55;;;;;;;8.15;2.85;;;6.40;71.40;;;;;;2389681;54;20939;-67
2022/01/22 01:36:53;;;;;;;5.03;2.12;;;6.20;71.50;;;;;;2390048;54;20995;-66
2022/01/22 01:39:25;;;;;;;5.18;2.55;;;6.20;71.50;;;;;;2389742;54;20984;-65
2022/01/22 01:44:39;;;;;;;5.82;2.40;;;6.10;70.60;;;;;;2389814;54;20073;-65
2022/01/22 01:47:08;;;;;;;4.57;2.05;;;6.10;71.60;;;;;;2389777;54;20944;-67
2022/01/22 01:49:36;;;;;;;5.43;2.60;;;6.10;71.60;;;;;;2389568;54;20952;-66
2022/01/22 01:52:06;;;;;;;6.12;2.50;;;6.10;71.70;;;;;;2361859;54;20986;-67
2022/01/22 01:57:59;;;;;;;4.32;2.17;;;6.10;71.80;;;;;;2381397;53;21701;-67
2022/01/22 02:00:26;;;;;;;4.95;2.35;;;6.10;71.90;;;;;;2389835;54;21387;-68
2022/01/22 02:02:55;;;;;;;10.43;3.25;;;6.10;72.00;;;;;;2502087;52;20975;-66
2022/01/22 02:05:22;;;;;;;7.70;2.60;;;6.10;72.00;;;;;;2411200;52;21430;-68
2022/01/22 02:07:51;;;;;;;5.80;2.17;;;6.00;72.10;;;;;;2389808;54;20912;-66
2022/01/22 02:10:22;;;;;;;5.78;2.50;;;6.00;72.10;;;;;;2389951;54;20933;-69
2022/01/22 02:23:57;;;;;;;5.20;2.25;;;6.10;72.40;;;;;;2389976;54;21090;-65
2022/01/22 02:26:27;;;;;;;4.80;2.12;;;6.10;72.50;;;;;;2372647;53;21028;-66
2022/01/22 02:28:53;;;;;;;6.57;2.33;;;6.10;72.50;;;;;;2379557;53;20951;-68
2022/01/22 02:31:38;;;;;;;5.30;2.50;;;6.20;72.50;;;;;;2396463;52;21022;-69
2022/01/22 02:37:03;;;;;;;4.10;2.03;;;6.20;72.50;;;;;;2389990;54;21346;-65
2022/01/22 02:39:47;;;;;;;6.35;2.15;;;6.20;72.50;;;;;;2388580;53;20957;-66
2022/01/22 02:42:14;;;;;;;6.55;2.05;;;6.20;72.50;;;;;;2368427;53;20956;-68
2022/01/22 02:44:45;;;;;;;4.80;2.00;;;6.20;72.50;;;;;;2390204;53;21753;-66
2022/01/22 02:47:13;;;;;;;5.55;2.30;;;6.20;72.60;;;;;;2389726;54;20975;-68
2022/01/22 02:49:40;;;;;;;5.65;2.00;;;6.30;72.60;;;;;;2389462;54;20983;-69
2022/01/22 02:52:10;;;;;;;4.70;2.20;;;6.30;72.70;;;;;;2389851;54;20935;-69
2022/01/22 02:54:37;;;;;;;5.32;2.28;;;6.30;72.70;;;;;;2646520;52;21511;-66
2022/01/22 02:57:04;;;;;;;6.75;2.72;;;6.30;72.70;;;;;;2362113;54;20943;-68
2022/01/22 02:59:30;;;;;;;4.68;2.03;;;6.30;72.60;;;;;;2371107;54;21376;-67
2022/01/22 03:02:05;;;;;;;6.30;2.55;;;6.40;72.80;;;;;;2380200;53;20904;-66
2022/01/22 03:04:31;;;;;;;5.32;2.10;;;6.40;72.60;;;;;;2391723;52;21005;-69
2022/01/22 03:06:58;;;;;;;3.85;1.73;;;6.40;72.80;;;;;;2389278;54;21765;-69
2022/01/22 03:09:29;;;;;;;4.45;1.62;;;6.40;72.80;;;;;;2389750;54;20956;-67
2022/01/22 03:19:11;;;;;;;4.18;1.80;;;6.50;72.60;;;;;;2364445;54;20935;-69
2022/01/22 03:21:53;;;;;;;4.57;1.75;;;6.50;72.50;;;;;;2440262;53;20940;-66
2022/01/22 03:27:24;;;;;;;4.68;1.80;;;6.50;72.40;;;;;;2516057;52;21009;-66
2022/01/22 03:29:51;;;;;;;5.70;1.87;;;6.50;72.40;;;;;;2355097;54;20990;-66
2022/01/22 03:32:18;;;;;;;5.70;1.85;;;6.50;72.30;;;;;;2628955;52;20967;-66
2022/01/22 03:34:56;;;;;;;3.58;1.60;;;6.50;72.30;;;;;;2360717;54;21058;-68
2022/01/22 03:37:32;;;;;;;5.15;1.87;;;6.50;72.30;;;;;;2646469;52;20931;-68
2022/01/22 03:39:58;;;;;;;5.30;2.45;;;6.50;72.40;;;;;;2370002;52;20993;-65
2022/01/22 03:42:25;;;;;;;4.53;1.80;;;6.40;72.30;;;;;;2389443;54;20939;-66
2022/01/22 03:44:51;;;;;;;8.23;2.25;;;6.40;72.30;;;;;;2390583;54;20931;-67
2022/01/22 03:47:17;;;;;;;5.75;2.10;;;6.40;72.30;;;;;;2519786;52;20971;-68
2022/01/22 03:49:44;;;;;;;4.93;1.70;;;6.40;72.20;;;;;;2389754;54;21840;-68
2022/01/22 03:52:10;;;;;;;5.82;1.70;;;6.40;72.20;;;;;;2390000;54;21397;-68
2022/01/22 03:54:36;;;;;;;3.80;1.48;;;6.40;72.20;;;;;;2390063;54;21887;-66
2022/01/22 03:57:03;;;;;;;5.00;1.42;;;6.50;72.20;;;;;;2389777;54;20986;-65
2022/01/22 03:59:30;;;;;;;4.32;1.90;;;6.40;72.20;;;;;;2389270;53;21067;-66
2022/01/22 04:11:15;;;;;;;5.32;1.70;;;6.40;72.10;;;;;;2390351;54;21055;-67
2022/01/22 04:13:42;;;;;;;3.28;1.60;;;6.40;71.90;;;;;;2389493;54;20999;-67
2022/01/22 04:16:11;;;;;;;4.05;2.17;;;6.40;72.00;;;;;;2362936;53;21408;-67
2022/01/22 04:26:58;;;;;;;4.57;1.65;;;6.40;72.40;;;;;;2393535;53;20936;-68
2022/01/22 04:29:25;;;;;;;5.00;1.87;;;6.40;72.40;;;;;;2370862;53;20972;-68
2022/01/22 04:31:51;;;;;;;4.47;1.65;;;6.40;72.40;;;;;;2389174;53;20915;-68
2022/01/22 04:34:17;;;;;;;5.93;2.55;;;6.40;72.50;;;;;;2393944;53;20919;-66
2022/01/22 04:36:44;;;;;;;5.10;2.28;;;6.40;72.50;;;;;;2394559;53;21082;-69
2022/01/22 04:39:12;;;;;;;4.43;2.20;;;6.40;72.60;;;;;;2366789;53;21059;-67
2022/01/22 04:41:39;;;;;;;4.68;1.83;;;6.40;72.60;;;;;;2394202;53;20916;-68
2022/01/22 04:44:07;;;;;;;5.30;1.98;;;6.40;72.60;;;;;;2490308;52;20955;-68
2022/01/22 04:47:46;;;;;;;3.67;1.95;;;6.40;72.60;;;;;;2393921;53;20956;-67
2022/01/22 04:59:26;;;;;;;3.65;1.58;;;6.50;72.60;;;;;;2386120;53;20957;-66
2022/01/22 05:01:52;;;;;;;5.12;2.00;;;6.50;72.30;;;;;;2373110;53;20924;-66
2022/01/22 05:04:19;;;;;;;5.18;1.33;;;6.50;72.40;;;;;;2397160;53;20919;-67
2022/01/22 05:06:49;;;;;;;4.12;1.40;;;6.50;72.50;;;;;;2359568;53;20950;-68
2022/01/22 05:09:16;;;;;;;5.68;1.67;;;6.50;72.70;;;;;;2349831;54;20948;-67
2022/01/22 05:11:43;;;;;;;5.12;1.55;;;6.40;72.60;;;;;;2395036;53;20947;-66
2022/01/22 05:14:11;;;;;;;5.00;2.05;;;6.50;72.80;;;;;;2383826;53;20929;-68
2022/01/22 05:16:38;;;;;;;4.93;1.95;;;6.50;72.80;;;;;;2376120;53;20943;-67
2022/01/22 05:19:21;;;;;;;6.20;2.30;;;6.50;72.80;;;;;;2543761;52;20915;-66
2022/01/22 05:21:49;;;;;;;5.70;2.00;;;6.50;72.70;;;;;;2397267;53;20943;-67
2022/01/22 05:24:20;;;;;;;5.18;1.73;;;6.60;72.60;;;;;;2394504;53;20979;-68
2022/01/22 05:38:47;;;;;;;3.03;1.30;;;6.60;72.20;;;;;;2494490;52;20943;-66
2022/01/22 05:41:15;;;;;;;3.70;1.45;;;6.50;72.10;;;;;;2394858;53;20963;-67
2022/01/22 05:43:41;;;;;;;4.53;1.60;;;6.50;72.20;;;;;;2385354;53;20951;-66
2022/01/22 05:46:08;;;;;;;3.47;1.40;;;6.50;72.30;;;;;;2394928;53;21083;-65
2022/01/22 05:48:34;;;;;;;3.50;1.60;;;6.50;72.30;;;;;;2395723;53;21047;-68
2022/01/22 05:51:03;;;;;;;5.95;1.80;;;6.50;72.30;;;;;;2632691;52;20919;-68
2022/01/22 06:02:44;;;;;;;3.45;1.33;;;6.50;72.20;;;;;;2394704;53;21008;-67
2022/01/22 06:05:11;;;;;;;3.95;1.40;;;6.50;72.00;;;;;;2365566;53;21656;-67
2022/01/22 06:07:38;;;;;;;4.80;1.37;;;6.50;72.10;;;;;;2394318;53;20920;-66
2022/01/22 06:10:16;;;;;;;4.37;1.80;;;6.50;72.10;;;;;;2394813;53;21019;-68
2022/01/22 06:16:17;;;;;;;3.25;1.40;;;6.40;71.90;;;;;;2394390;53;20931;-68
2022/01/22 06:18:43;;;;;;;4.12;1.73;;;6.40;71.80;;;;;;2394330;53;20927;-66
2022/01/22 06:21:10;;;;;;;3.47;1.60;;;6.40;72.10;;;;;;2430229;52;20967;-68
2022/01/22 06:23:39;;;;;;;5.93;2.42;;;6.40;72.20;;;;;;2394438;53;21019;-67
2022/01/22 06:26:06;;;;;;;7.05;2.55;;;6.40;72.20;;;;;;2394577;53;21783;-69
2022/01/22 06:28:33;;;;;;;5.82;2.78;;;6.40;72.20;;;;;;2394408;53;21397;-69
2022/01/22 06:30:59;;;;;;;5.43;2.58;;;6.40;72.20;;;;;;2394066;53;20928;-68
2022/01/22 06:33:26;;;;;;;4.87;2.60;;;6.40;72.20;;;;;;2394434;53;20915;-66
2022/01/22 06:35:52;;;;;;;4.12;2.30;;;6.40;72.20;;;;;;2447500;52;21004;-67
2022/01/22 06:38:19;;;;;;;5.28;2.22;;;6.40;72.20;;;;;;2394424;53;20935;-67
2022/01/22 06:43:34;;;;;;;4.37;1.80;;;6.40;72.20;;;;;;2597721;52;20937;-69
2022/01/22 06:46:00;;;;;;;4.18;1.85;;;6.40;72.30;;;;;;2389629;53;20991;-68
2022/01/22 06:48:26;;;;;;;4.43;1.40;;;6.40;72.30;;;;;;2372607;53;20941;-67
2022/01/22 06:50:53;;;;;;;4.35;1.60;;;6.30;72.20;;;;;;2386823;53;20947;-66
2022/01/22 06:53:19;;;;;;;4.03;1.70;;;6.40;72.40;;;;;;2366607;53;20971;-65
2022/01/22 06:55:59;;;;;;;5.00;1.60;;;6.40;73.10;;;;;;2394672;53;20915;-66
2022/01/22 06:58:25;;;;;;;4.37;1.90;;;6.40;72.40;;;;;;2401302;52;21045;-68
2022/01/22 07:00:51;;;;;;;5.15;1.90;;;6.40;72.30;;;;;;2379047;53;21281;-68
2022/01/22 07:03:17;;;;;;;5.10;1.65;;;6.40;72.20;;;;;;2394137;53;20944;-68
2022/01/22 07:05:45;;;;;;;5.90;1.98;;;6.40;72.10;;;;;;2394608;53;20962;-66
2022/01/22 07:08:11;;;;;;;3.97;1.80;;;6.40;72.10;;;;;;2651791;52;20963;-67
2022/01/22 07:10:37;;;;;;;4.20;2.10;;;6.40;72.10;;;;;;2394489;53;20966;-68
2022/01/22 07:13:04;;;;;;;6.62;2.65;;;6.40;72.10;;;;;;2394541;53;20975;-66
2022/01/22 07:15:30;;;;;;;3.42;1.80;;;6.40;72.10;;;;;;2393991;53;20911;-69
2022/01/22 07:17:56;;;;;;;4.43;2.00;;;6.40;72.20;;;;;;2389199;53;20945;-66
2022/01/22 07:20:28;;;;;;;5.78;2.35;;;6.40;72.20;;;;;;2358825;53;20959;-68
2022/01/22 07:23:02;;;;;;;4.55;1.98;;;6.50;73.10;;;;;;2415178;52;20944;-68
2022/01/22 07:25:28;;;;;;;4.72;2.05;;;6.50;72.30;;;;;;2383831;54;21063;-66
2022/01/22 07:27:55;;;;;;;5.68;2.30;;;6.50;72.40;;;;;;2384360;53;20928;-67
2022/01/22 07:30:25;;;;;;;4.97;2.17;;;6.50;72.40;;;;;;2384342;53;20920;-68
2022/01/22 07:32:52;;;;;;;5.07;2.50;;;6.50;72.30;;;;;;2356629;53;20926;-67
2022/01/22 07:35:18;;;;;;;5.75;2.47;;;6.50;72.30;;;;;;2385978;53;20936;-67
2022/01/22 07:37:46;;;;;;;4.97;2.35;;;6.50;72.30;;;;;;2352407;53;21423;-67
2022/01/22 07:40:12;;;;;;;4.50;2.15;;;6.50;72.30;;;;;;2570841;53;20954;-66
2022/01/22 07:42:40;;;;;;;6.53;2.45;;;6.50;72.30;;;;;;2356212;53;21082;-65
2022/01/22 07:45:08;;;;;;;4.18;2.10;;;6.50;72.40;;;;;;2356824;53;20998;-65
2022/01/22 07:47:35;;;;;;;4.60;2.10;;;6.50;72.40;;;;;;2356515;53;20946;-66
2022/01/22 07:50:02;;;;;;;5.57;2.12;;;6.50;72.40;;;;;;2362908;53;20958;-68
2022/01/22 07:52:28;;;;;;;6.53;2.65;;;6.50;72.40;;;;;;2356348;53;21728;-69
2022/01/22 07:54:54;;;;;;;6.60;2.60;;;6.50;72.40;;;;;;2356700;53;20982;-69
2022/01/22 07:57:21;;;;;;;7.20;2.55;;;6.50;72.40;;;;;;2356221;53;21466;-69
2022/01/22 07:59:47;;;;;;;5.93;2.50;;;6.50;72.40;;;;;;2354555;53;20949;-65
2022/01/22 08:02:14;;;;;;;6.50;2.90;;;6.60;72.40;;;;;;2348824;54;20898;-67
2022/01/22 08:04:43;;;;;;;7.82;3.05;;;6.60;72.40;;;;;;2562950;52;20925;-67
2022/01/22 08:07:09;;;;;;;6.28;2.60;;;6.60;72.50;;;;;;2355968;54;20934;-67
2022/01/22 08:09:35;;;;;;;7.57;2.85;;;6.60;72.50;;;;;;2337641;54;20984;-67
2022/01/22 08:12:02;;;;;;;5.57;2.70;;;6.60;72.60;;;;;;2328066;54;20937;-68
2022/01/22 08:14:28;;;;;;;5.55;3.00;;;6.60;72.70;;;;;;2327535;54;20957;-68
2022/01/22 08:16:55;;;;;;;8.07;3.00;;;6.60;72.70;;;;;;2434290;52;20913;-67
2022/01/22 08:19:23;;;;;;;6.03;3.20;;;6.60;72.80;;;;;;2359832;54;20981;-67
2022/01/22 08:21:49;;;;;;;7.12;2.90;;;6.60;72.80;;;;;;2610843;52;20945;-68
2022/01/22 08:24:17;;;;;;;5.03;2.80;;;6.60;72.80;;;;;;2360074;54;21009;-69
2022/01/22 08:26:51;;;;;;;6.50;3.10;;;6.70;72.90;;;;;;2349511;53;21001;-68
2022/01/22 08:29:17;;;;;;;9.80;3.97;;;6.70;72.90;;;;;;2374168;53;21838;-69
2022/01/22 08:31:51;;;;;;;11.60;5.10;;;6.70;72.80;;;;;;2361033;53;21024;-66
2022/01/22 08:37:02;;;;;;;6.30;3.40;;;6.70;72.80;;;;;;2423404;53;20927;-67
2022/01/22 08:39:29;;;;;;;8.48;4.10;;;6.70;72.90;;;;;;2361723;53;20979;-67
2022/01/22 08:41:56;;;;;;;7.72;3.53;;;6.80;72.90;;;;;;2361608;53;20967;-65
2022/01/22 08:44:22;;;;;;;8.18;3.62;;;6.80;72.90;;;;;;2333444;54;20929;-68
2022/01/22 08:46:48;;;;;;;7.68;3.92;;;6.80;73.00;;;;;;2454373;52;20935;-65
2022/01/22 08:49:14;;;;;;;7.00;3.65;;;6.80;73.10;;;;;;2607307;52;20961;-68
2022/01/22 08:51:40;;;;;;;8.18;4.00;;;6.90;73.30;;;;;;2353830;54;21009;-68
2022/01/22 08:54:08;;;;;;;12.35;3.92;;;6.90;73.30;;;;;;2362224;54;20978;-68
2022/01/22 08:56:34;;;;;;;10.60;3.60;;;6.90;73.30;;;;;;2365203;54;21759;-67
2022/01/22 08:59:01;;;;;;;8.02;4.12;;;7.00;73.40;;;;;;2385370;54;21436;-68
2022/01/22 09:01:27;;;;;;;9.27;3.40;;;7.00;73.30;;;;;;2385061;54;21745;-68
2022/01/22 09:03:53;;;;;;;8.55;3.92;;;7.00;73.40;;;;;;2473719;52;21549;-66
2022/01/22 09:06:20;;;;;;;9.27;4.28;;;7.10;73.40;;;;;;2362001;54;20912;-66
2022/01/22 09:08:50;;;;;;;7.68;3.78;;;7.10;73.30;;;;;;2510151;52;20960;-67
2022/01/22 09:11:18;;;;;;;7.37;4.12;;;7.10;73.10;;;;;;2537459;52;21000;-69
2022/01/22 09:13:44;;;;;;;8.27;3.55;;;7.20;73.30;;;;;;2479178;52;21406;-67
2022/01/22 09:16:11;;;;;;;7.65;3.92;;;7.20;73.40;;;;;;2383350;54;20927;-66
2022/01/22 09:18:40;;;;;;;9.52;4.20;;;7.20;73.50;;;;;;2383808;54;20951;-69
2022/01/22 09:21:10;;;;;;;7.57;3.95;;;7.20;73.20;;;;;;2383624;54;20956;-66
2022/01/22 09:23:36;;;;;;;9.85;5.12;;;7.30;73.30;;;;;;2638756;52;21858;-68
2022/01/22 09:26:05;;;;;;;9.82;4.75;;;7.30;73.20;;;;;;2384665;54;20932;-69
2022/01/22 09:28:34;;;;;;;10.13;4.60;;;7.30;73.10;;;;;;2383977;54;20939;-69
2022/01/22 09:31:00;;;;;;;7.97;4.28;;;7.40;73.30;;;;;;2347029;54;21020;-66
2022/01/22 09:33:27;;;;;;;8.05;4.45;;;7.40;73.30;;;;;;2376349;53;20974;-67
2022/01/22 09:35:53;;;;;;;11.35;4.50;;;7.40;73.30;;;;;;2384581;54;21825;-67
2022/01/22 09:38:21;;;;;;;9.57;4.78;;;7.50;73.50;;;;;;2402182;52;20923;-69
2022/01/22 09:40:47;;;;;;;12.82;5.37;;;7.50;73.40;;;;;;2388240;52;1778034;-69
2022/01/22 09:43:15;;;;;;;9.25;4.97;;;7.50;73.60;;;;;;2384164;54;20944;-68
2022/01/22 09:45:41;;;;;;;9.68;5.07;;;7.60;73.60;;;;;;2397184;52;20947;-66
2022/01/22 09:48:07;;;;;;;9.02;5.20;;;7.60;73.60;;;;;;2348318;54;21035;-67
2022/01/22 09:50:33;;;;;;;9.65;4.80;;;7.70;73.50;;;;;;2359875;54;20935;-68
2022/01/22 09:53:00;;;;;;;9.55;5.10;;;7.70;73.30;;;;;;2394005;53;20912;-67
2022/01/22 09:55:26;;;;;;;9.13;4.65;;;7.70;73.10;;;;;;2395935;53;20972;-66
2022/01/22 09:57:54;;;;;;;9.15;4.60;;;7.70;73.00;;;;;;2596143;52;21420;-66
2022/01/22 10:00:22;;;;;;;7.37;4.55;;;7.80;72.90;;;;;;2394051;53;20955;-69
2022/01/22 10:02:50;;;;;;;9.60;4.70;;;7.80;73.00;;;;;;2394004;53;20928;-66
2022/01/22 10:08:55;;;;;;;8.60;4.50;;;7.80;73.10;;;;;;2394119;53;20920;-68
2022/01/22 10:11:25;;;;;;;8.25;4.22;;;7.90;71.50;;;;;;2394384;53;20943;-67
2022/01/22 10:13:52;;;;;;;9.77;4.82;;;7.90;73.10;;;;;;2416360;52;21546;-67
2022/01/22 10:16:32;;;;;;;6.45;3.80;;;7.90;73.00;;;;;;2394516;53;21388;-66
2022/01/22 10:19:27;;;;;;;8.18;4.47;;;8.00;72.80;;;;;;2394805;53;21010;-67
2022/01/22 10:21:59;;;;;;;9.18;5.10;;;8.00;72.90;;;;;;2393669;53;20986;-67
2022/01/22 10:24:43;;;;;;;9.52;4.90;;;8.00;73.30;;;;;;2531724;52;21736;-68
2022/01/22 10:27:44;;;;;;;7.78;4.35;;;8.10;73.10;;;;;;2393279;53;21747;-69
2022/01/22 10:30:15;;;;;;;9.35;4.05;;;8.10;72.60;;;;;;2381137;53;20936;-67
2022/01/22 10:32:59;;;;;;;6.55;4.10;;;8.20;73.30;;;;;;2396937;53;21003;-68
2022/01/22 10:35:28;;;;;;;9.45;5.18;;;8.20;73.40;;;;;;2394562;53;21074;-67
2022/01/22 10:38:12;;;;;;;10.10;4.95;;;8.20;73.20;;;;;;2592115;52;21453;-66
2022/01/22 10:40:40;;;;;;;9.40;5.32;;;8.30;73.40;;;;;;2378119;53;21022;-67
2022/01/22 10:43:19;;;;;;;10.20;6.10;;;8.30;73.30;;;;;;2399403;53;20954;-68
2022/01/22 10:47:02;;;;;;;12.35;6.05;;;8.30;72.60;;;;;;2399725;53;20966;-67
2022/01/22 10:49:28;;;;;;;10.55;5.30;;;8.30;71.10;;;;;;2398628;53;21027;-69
2022/01/22 10:52:04;;;;;;;8.60;5.15;;;8.40;72.60;;;;;;2399356;53;20951;-66
2022/01/22 10:54:32;;;;;;;11.80;5.53;;;8.40;72.30;;;;;;2378482;53;20996;-69
2022/01/22 10:57:20;;;;;;;10.13;5.30;;;8.40;72.60;;;;;;2467390;52;21018;-67
2022/01/22 10:59:48;;;;;;;8.38;5.05;;;8.40;72.00;;;;;;2398711;53;20931;-68
2022/01/22 11:02:17;;;;;;;10.35;5.45;;;8.40;72.80;;;;;;2399538;53;20947;-68
2022/01/22 11:04:45;;;;;;;10.95;5.82;;;8.40;72.70;;;;;;2375020;53;21005;-66
2022/01/22 11:07:19;;;;;;;9.70;5.35;;;8.40;72.60;;;;;;2399428;53;20931;-68
2022/01/22 11:09:49;;;;;;;8.45;4.93;;;8.40;72.40;;;;;;2400231;53;20943;-67
2022/01/22 11:12:16;;;;;;;9.55;5.10;;;8.50;72.90;;;;;;2558954;52;20923;-65
2022/01/22 11:14:43;;;;;;;7.45;4.57;;;8.50;72.80;;;;;;2658518;52;20939;-69
2022/01/22 11:17:09;;;;;;;12.10;5.47;;;8.50;72.90;;;;;;2375170;53;20928;-67
2022/01/22 11:19:38;;;;;;;7.55;4.95;;;8.50;72.80;;;;;;2399583;53;20979;-69
2022/01/22 11:22:14;;;;;;;8.65;4.93;;;8.50;72.60;;;;;;2376792;53;20961;-69
2022/01/22 11:24:42;;;;;;;10.82;5.22;;;8.60;72.30;;;;;;2354349;53;21018;-68
2022/01/22 11:27:10;;;;;;;10.20;5.12;;;8.60;72.60;;;;;;2436262;52;21021;-66
2022/01/22 11:29:51;;;;;;;8.98;5.53;;;8.60;72.60;;;;;;2372150;53;21115;-66
2022/01/22 11:32:20;;;;;;;9.65;5.05;;;8.60;72.70;;;;;;2387824;53;20995;-69
2022/01/22 11:34:49;;;;;;;12.18;6.05;;;8.60;72.90;;;;;;2400536;52;21014;-68
2022/01/22 11:37:34;;;;;;;12.30;7.30;;;8.70;72.90;;;;;;2399119;53;20955;-70
2022/01/22 11:40:20;;;;;;;11.07;6.32;;;8.70;72.10;;;;;;2375134;53;20933;-68
2022/01/22 11:43:05;;;;;;;12.13;6.25;;;8.70;71.60;;;;;;2399816;53;21043;-69
2022/01/22 11:45:50;;;;;;;9.48;5.40;;;8.80;72.70;;;;;;2399647;53;20927;-69
2022/01/22 11:48:18;;;;;;;10.52;5.12;;;8.80;72.60;;;;;;2399733;53;21432;-68
2022/01/22 11:50:46;;;;;;;9.18;5.87;;;8.80;73.30;;;;;;2359329;53;21037;-66
2022/01/22 11:54:14;;;;;;;9.10;5.60;;;8.90;73.40;;;;;;2380302;52;20931;-67
2022/01/22 11:56:46;;;;;;;10.98;6.07;;;9.00;72.00;;;;;;2399416;53;21337;-68
2022/01/22 11:59:16;;;;;;;11.70;6.90;;;9.00;73.40;;;;;;2399319;53;20900;-69
2022/01/22 12:02:04;;;;;;;8.60;6.00;;;9.00;73.00;;;;;;2399737;53;20947;-67
2022/01/22 12:05:31;;;;;;;11.93;6.30;;;9.10;72.40;;;;;;2399553;53;20987;-67
2022/01/22 12:07:58;;;;;;;8.75;5.70;;;9.10;71.40;;;;;;2399997;53;20943;-66
2022/01/22 12:10:39;;;;;;;9.98;5.85;;;9.10;72.80;;;;;;2658176;52;20924;-67
2022/01/22 12:16:17;;;;;;;12.00;6.68;;;9.20;72.00;;;;;;2364747;54;21075;-70
2022/01/22 12:18:54;;;;;;;11.18;5.43;;;9.20;72.70;;;;;;2364961;53;21918;-67
2022/01/22 12:21:38;;;;;;;10.65;6.07;;;9.20;72.90;;;;;;2365190;54;20962;-69
2022/01/22 12:24:06;;;;;;;12.02;5.80;;;9.30;72.80;;;;;;2370702;53;21017;-66
2022/01/22 12:26:43;;;;;;;7.78;5.30;;;9.30;73.90;;;;;;2374305;53;20943;-67
2022/01/22 12:29:32;;;;;;;11.15;6.28;;;9.40;73.60;;;;;;2365468;53;21017;-66
2022/01/22 12:32:41;;;;;;;10.68;5.45;;;9.50;72.60;;;;;;2364577;53;21002;-69
2022/01/22 12:35:10;;;;;;;11.88;5.78;;;9.50;72.30;;;;;;2366257;53;21889;-66
2022/01/22 12:37:40;;;;;;;12.37;6.40;;;9.60;73.50;;;;;;2364981;53;20960;-70
2022/01/22 12:40:08;;;;;;;10.82;6.25;;;9.60;72.80;;;;;;2370613;54;21041;-70
2022/01/22 12:42:56;;;;;;;8.75;5.35;;;9.60;72.80;;;;;;2370672;53;20974;-66
2022/01/22 12:45:24;;;;;;;10.02;5.78;;;9.70;72.30;;;;;;2345156;54;20981;-67
2022/01/22 12:47:50;;;;;;;11.65;6.03;;;9.70;73.00;;;;;;2364667;53;21810;-69
2022/01/22 12:50:30;;;;;;;8.05;5.07;;;9.70;72.80;;;;;;2365744;53;20943;-68
2022/01/22 12:53:02;;;;;;;8.70;5.50;;;9.70;72.50;;;;;;2350620;54;20964;-67
2022/01/22 12:55:49;;;;;;;10.23;5.62;;;9.80;73.00;;;;;;2393957;53;20951;-67
2022/01/22 12:58:46;;;;;;;10.52;6.10;;;9.80;73.10;;;;;;2392555;53;21046;-68
2022/01/22 13:01:28;;;;;;;8.15;5.45;;;9.80;72.90;;;;;;2394479;53;20916;-66
2022/01/22 13:03:55;;;;;;;10.68;5.60;;;9.90;72.90;;;;;;2371176;54;20949;-69
2022/01/22 13:06:32;;;;;;;9.60;5.10;;;9.90;73.00;;;;;;2388866;53;21677;-70
2022/01/22 13:08:58;;;;;;;11.75;6.00;;;9.90;73.00;;;;;;2376493;53;21409;-68
2022/01/22 13:11:28;;;;;;;11.02;5.65;;;10.00;71.80;;;;;;2393940;53;20951;-69
2022/01/22 13:13:54;;;;;;;8.43;5.20;;;10.00;71.40;;;;;;2394057;53;21856;-67
2022/01/22 13:16:24;;;;;;;7.60;4.62;;;10.00;71.40;;;;;;2566501;52;21098;-68
2022/01/22 13:19:06;;;;;;;9.60;4.75;;;10.00;71.30;;;;;;2393945;53;21568;-68
2022/01/22 13:21:32;;;;;;;8.32;5.10;;;10.00;70.90;;;;;;2365611;54;21020;-66
2022/01/22 13:24:19;;;;;;;8.45;4.78;;;10.00;71.00;;;;;;2355486;53;20982;-68
2022/01/22 13:27:06;;;;;;;9.75;5.53;;;10.00;70.70;;;;;;2394646;53;21793;-69
2022/01/22 13:29:39;;;;;;;8.57;5.35;;;10.00;70.50;;;;;;2435095;52;20943;-66
2022/01/22 13:32:45;;;;;;;9.43;5.72;;;10.00;70.90;;;;;;2389462;53;21461;-67
2022/01/22 13:35:51;;;;;;;10.00;5.65;;;10.00;70.50;;;;;;2383400;53;21744;-66
2022/01/22 13:49:02;;;;;;;7.53;4.45;;;10.00;70.50;;;;;;2511169;52;21302;-67
2022/01/22 13:51:32;;;;;;;7.60;4.32;;;9.90;71.30;;;;;;2392755;53;20994;-67
2022/01/22 13:54:00;;;;;;;8.23;4.72;;;9.90;71.40;;;;;;2370801;54;21025;-68
2022/01/22 13:56:55;;;;;;;7.85;4.30;;;9.90;71.60;;;;;;2354477;54;20983;-69
2022/01/22 13:59:33;;;;;;;7.45;4.45;;;9.90;70.80;;;;;;2353279;54;20946;-69
2022/01/22 14:06:12;;;;;;;5.97;3.53;;;9.90;71.30;;;;;;2437315;52;20989;-68
2022/01/22 14:08:38;;;;;;;7.18;4.20;;;9.90;71.50;;;;;;2364063;54;20996;-68
2022/01/22 14:11:12;;;;;;;7.07;3.80;;;9.80;71.40;;;;;;2433650;52;21001;-67
2022/01/22 14:13:39;;;;;;;8.63;4.35;;;9.80;71.20;;;;;;2508440;52;21448;-67
2022/01/22 14:16:21;;;;;;;10.57;4.50;;;9.80;71.70;;;;;;2365814;53;21462;-67
2022/01/22 14:18:49;;;;;;;7.85;4.53;;;9.80;71.10;;;;;;2351840;54;21590;-67
2022/01/22 14:21:21;;;;;;;7.10;4.28;;;9.80;71.70;;;;;;2388084;53;20922;-69
2022/01/22 14:23:52;;;;;;;6.70;4.05;;;9.80;71.60;;;;;;2611588;53;21039;-67
2022/01/22 14:26:32;;;;;;;7.85;4.18;;;9.80;71.60;;;;;;2383634;53;21095;-66
2022/01/22 14:29:07;;;;;;;6.60;3.97;;;9.80;71.40;;;;;;2361407;53;20911;-68
2022/01/22 14:32:07;;;;;;;9.90;4.87;;;9.80;71.40;;;;;;2375343;53;21050;-68
2022/01/22 14:34:39;;;;;;;6.93;4.15;;;9.80;71.60;;;;;;2356102;54;20946;-69
2022/01/22 14:37:06;;;;;;;7.80;4.03;;;9.70;71.40;;;;;;2377441;53;20974;-68
2022/01/22 14:45:23;;;;;;;7.82;4.03;;;9.70;71.00;;;;;;2356372;53;20926;-69
2022/01/22 14:47:54;;;;;;;8.73;4.10;;;9.70;71.60;;;;;;2356573;53;20974;-70
2022/01/22 14:50:21;;;;;;;7.53;4.03;;;9.70;71.40;;;;;;2356062;53;20969;-66
2022/01/22 14:52:49;;;;;;;8.07;4.07;;;9.70;71.60;;;;;;2356832;54;20902;-68
2022/01/22 14:55:16;;;;;;;7.32;3.92;;;9.60;71.60;;;;;;2356669;53;20950;-69
2022/01/22 14:57:45;;;;;;;9.95;5.05;;;9.60;71.50;;;;;;2356438;53;20962;-66
2022/01/22 15:00:14;;;;;;;7.47;4.50;;;9.60;71.50;;;;;;2355311;53;20938;-67
2022/01/22 15:02:41;;;;;;;7.97;4.03;;;9.60;71.40;;;;;;2323811;54;21096;-68
2022/01/22 15:05:14;;;;;;;6.78;4.28;;;9.60;71.40;;;;;;2374010;53;21520;-67
2022/01/22 15:07:43;;;;;;;7.40;4.60;;;9.60;71.40;;;;;;2360222;54;21437;-67
2022/01/22 15:10:11;;;;;;;6.78;4.15;;;9.60;71.40;;;;;;2389691;54;20938;-69
2022/01/22 15:12:38;;;;;;;6.72;3.83;;;9.60;71.40;;;;;;2370010;53;21821;-66
2022/01/22 15:15:19;;;;;;;8.05;4.37;;;9.60;71.40;;;;;;2385117;54;20936;-67
2022/01/22 15:18:04;;;;;;;6.28;4.05;;;9.50;71.30;;;;;;2387984;54;21453;-67
2022/01/22 15:20:32;;;;;;;5.45;3.50;;;9.50;71.40;;;;;;2646123;52;20928;-66
2022/01/22 15:22:59;;;;;;;9.43;3.75;;;9.50;71.40;;;;;;2389404;54;20960;-68
2022/01/22 15:25:27;;;;;;;10.40;4.03;;;9.50;71.20;;;;;;2388475;53;20931;-69
2022/01/22 15:27:55;;;;;;;8.38;4.50;;;9.50;71.20;;;;;;2389306;54;20920;-69
2022/01/22 15:30:30;;;;;;;7.43;4.05;;;9.40;71.10;;;;;;2363693;53;20976;-68
2022/01/22 15:33:02;;;;;;;7.18;4.55;;;9.40;71.20;;;;;;2367629;53;20939;-67